createdAt,value
2016-03-07T00:00:56.907Z,15.44
2016-03-07T00:01:56.971Z,15.39
2016-03-07T00:02:57.022Z,15.33
2016-03-07T00:03:57.040Z,15.39
2016-03-07T00:04:57.136Z,15.33
2016-03-07T00:05:57.185Z,15.46
2016-03-07T00:06:57.204Z,15.36
2016-03-07T00:07:57.254Z,15.44
2016-03-07T00:08:57.318Z,15.43
2016-03-07T00:09:57.368Z,15.39
2016-03-07T00:10:57.418Z,15.33
2016-03-07T00:11:57.452Z,15.33
2016-03-07T00:12:57.533Z,15.39
2016-03-07T00:13:57.582Z,15.43
2016-03-07T00:14:57.616Z,15.33
2016-03-07T00:15:57.666Z,15.47
2016-03-07T00:16:57.715Z,15.37
2016-03-07T00:17:57.749Z,15.39
2016-03-07T00:18:57.799Z,15.37
2016-03-07T00:19:57.880Z,15.37
2016-03-07T00:20:57.898Z,15.33
2016-03-07T00:21:57.948Z,15.43
2016-03-07T00:22:58.028Z,15.4
2016-03-07T00:23:58.046Z,15.42
2016-03-07T00:24:58.112Z,15.37
2016-03-07T00:25:58.146Z,15.35
2016-03-07T00:26:58.382Z,15.39
2016-03-07T00:27:58.260Z,15.36
2016-03-07T00:28:58.294Z,15.43
2016-03-07T00:29:58.328Z,15.29
2016-03-07T00:30:58.425Z,15.36
2016-03-07T00:31:58.443Z,15.36
2016-03-07T00:32:58.493Z,15.36
2016-03-07T00:33:58.574Z,15.33
2016-03-07T00:34:58.608Z,15.4
2016-03-07T00:35:58.641Z,15.46
2016-03-07T00:36:58.737Z,15.44
2016-03-07T00:37:58.741Z,15.44
2016-03-07T00:38:58.821Z,15.37
2016-03-07T00:39:58.840Z,15.4
2016-03-07T00:40:58.890Z,15.37
2016-03-07T00:41:58.954Z,15.4
2016-03-07T00:42:59.004Z,15.36
2016-03-07T00:43:59.038Z,15.37
2016-03-07T00:44:59.118Z,15.28
2016-03-07T00:45:59.152Z,15.43
2016-03-07T00:46:59.203Z,15.4
2016-03-07T00:47:59.267Z,15.36
2016-03-07T00:48:59.301Z,15.4
2016-03-07T00:49:59.336Z,15.35
2016-03-07T00:50:59.400Z,15.43
2016-03-07T00:51:59.466Z,15.43
2016-03-07T00:52:59.515Z,15.29
2016-03-07T00:53:59.549Z,15.37
2016-03-07T00:54:59.583Z,15.37
2016-03-07T00:55:59.633Z,15.46
2016-03-07T00:56:59.713Z,15.4
2016-03-07T00:57:59.732Z,15.4
2016-03-07T00:58:59.813Z,15.4
2016-03-07T00:59:59.863Z,15.42
2016-03-07T01:00:59.880Z,15.31
2016-03-07T01:01:59.977Z,15.39
2016-03-07T01:02:59.996Z,15.39
2016-03-07T01:04:00.044Z,15.43
2016-03-07T01:05:00.141Z,15.39
2016-03-07T01:06:00.129Z,15.4
2016-03-07T01:07:00.193Z,15.33
2016-03-07T01:08:00.260Z,15.35
2016-03-07T01:09:00.277Z,15.33
2016-03-07T01:10:00.342Z,15.42
2016-03-07T01:11:00.407Z,15.4
2016-03-07T01:12:00.441Z,15.4
2016-03-07T01:13:00.490Z,15.35
2016-03-07T01:14:00.556Z,15.4
2016-03-07T01:15:00.590Z,15.37
2016-03-07T01:16:00.639Z,15.43
2016-03-07T01:17:00.674Z,15.44
2016-03-07T01:18:00.739Z,15.37
2016-03-07T01:19:00.804Z,15.39
2016-03-07T01:20:00.837Z,15.28
2016-03-07T01:21:00.919Z,15.37
2016-03-07T01:22:00.937Z,15.37
2016-03-07T01:23:01.002Z,15.4
2016-03-07T01:24:01.005Z,15.4
2016-03-07T01:25:01.101Z,15.43
2016-03-07T01:26:01.151Z,15.4
2016-03-07T01:27:01.170Z,15.37
2016-03-07T01:28:01.234Z,15.35
2016-03-07T01:29:01.283Z,15.42
2016-03-07T01:30:01.350Z,15.39
2016-03-07T01:31:01.383Z,15.39
2016-03-07T01:32:01.432Z,15.36
2016-03-07T01:33:01.482Z,15.29
2016-03-07T01:34:01.500Z,15.43
2016-03-07T01:35:01.596Z,15.27
2016-03-07T01:36:01.631Z,15.33
2016-03-07T01:37:01.649Z,15.35
2016-03-07T01:38:01.745Z,15.42
2016-03-07T01:39:01.780Z,15.31
2016-03-07T01:40:01.813Z,15.39
2016-03-07T01:41:01.894Z,15.36
2016-03-07T01:42:01.912Z,15.33
2016-03-07T01:43:01.978Z,15.39
2016-03-07T01:44:02.027Z,15.4
2016-03-07T01:45:02.062Z,15.4
2016-03-07T01:46:02.126Z,15.29
2016-03-07T01:47:02.176Z,15.37
2016-03-07T01:48:02.195Z,15.35
2016-03-07T01:49:02.275Z,15.28
2016-03-07T01:50:02.340Z,15.35
2016-03-07T01:51:02.358Z,15.28
2016-03-07T01:52:02.424Z,15.27
2016-03-07T01:53:02.473Z,15.29
2016-03-07T01:54:02.508Z,15.28
2016-03-07T01:55:02.589Z,15.27
2016-03-07T01:56:02.606Z,15.27
2016-03-07T01:57:02.687Z,15.29
2016-03-07T01:58:02.722Z,15.29
2016-03-07T01:59:02.771Z,15.35
2016-03-07T02:00:02.819Z,15.28
2016-03-07T02:01:02.870Z,15.28
2016-03-07T02:02:02.935Z,15.35
2016-03-07T02:03:02.969Z,15.29
2016-03-07T02:04:03.035Z,15.29
2016-03-07T02:05:03.068Z,15.27
2016-03-07T02:06:02.946Z,15.31
2016-03-07T02:07:03.168Z,15.35
2016-03-07T02:08:03.216Z,15.27
2016-03-07T02:09:03.282Z,15.27
2016-03-07T02:10:03.316Z,15.31
2016-03-07T02:11:03.350Z,15.29
2016-03-07T02:12:03.477Z,15.33
2016-03-07T02:13:03.465Z,15.35
2016-03-07T02:14:03.499Z,15.33
2016-03-07T02:15:03.564Z,15.33
2016-03-07T02:16:03.629Z,15.33
2016-03-07T02:17:03.491Z,15.28
2016-03-07T02:18:03.728Z,15.36
2016-03-07T02:19:03.793Z,15.31
2016-03-07T02:20:03.828Z,15.29
2016-03-07T02:21:03.862Z,15.33
2016-03-07T02:22:03.912Z,15.29
2016-03-07T02:23:03.961Z,15.37
2016-03-07T02:24:03.995Z,15.33
2016-03-07T02:25:04.044Z,15.27
2016-03-07T02:26:04.125Z,15.29
2016-03-07T02:27:04.190Z,15.27
2016-03-07T02:28:04.224Z,15.35
2016-03-07T02:29:04.274Z,15.35
2016-03-07T02:30:04.339Z,15.31
2016-03-07T02:31:04.358Z,15.35
2016-03-07T02:32:04.406Z,15.33
2016-03-07T02:33:04.441Z,15.31
2016-03-07T02:34:04.521Z,15.29
2016-03-07T02:35:04.571Z,15.31
2016-03-07T02:36:04.589Z,15.33
2016-03-07T02:37:04.670Z,15.31
2016-03-07T02:38:04.705Z,15.29
2016-03-07T02:39:04.738Z,15.31
2016-03-07T02:40:04.819Z,15.27
2016-03-07T02:41:04.868Z,15.33
2016-03-07T02:42:04.887Z,15.29
2016-03-07T02:43:04.952Z,15.25
2016-03-07T02:44:05.079Z,15.31
2016-03-07T02:45:05.036Z,15.31
2016-03-07T02:46:05.132Z,15.29
2016-03-07T02:47:05.151Z,15.28
2016-03-07T02:48:05.199Z,15.28
2016-03-07T02:49:05.265Z,15.27
2016-03-07T02:50:05.284Z,15.29
2016-03-07T02:51:05.364Z,15.31
2016-03-07T02:52:05.414Z,15.29
2016-03-07T02:53:05.432Z,15.27
2016-03-07T02:54:05.482Z,15.27
2016-03-07T02:55:05.562Z,15.21
2016-03-07T02:56:05.581Z,15.28
2016-03-07T02:57:05.630Z,15.31
2016-03-07T02:58:05.695Z,15.27
2016-03-07T02:59:05.745Z,15.29
2016-03-07T03:00:05.856Z,15.28
2016-03-07T03:01:05.814Z,15.28
2016-03-07T03:02:05.878Z,15.25
2016-03-07T03:03:05.944Z,15.24
2016-03-07T03:04:05.977Z,15.31
2016-03-07T03:05:06.042Z,15.27
2016-03-07T03:06:06.092Z,15.27
2016-03-07T03:07:06.141Z,15.29
2016-03-07T03:08:06.175Z,15.31
2016-03-07T03:09:06.256Z,15.28
2016-03-07T03:10:06.291Z,15.28
2016-03-07T03:11:06.308Z,15.28
2016-03-07T03:12:06.374Z,15.27
2016-03-07T03:13:06.455Z,15.25
2016-03-07T03:14:06.488Z,15.31
2016-03-07T03:15:06.538Z,15.27
2016-03-07T03:16:06.603Z,15.29
2016-03-07T03:17:06.466Z,15.27
2016-03-07T03:18:06.671Z,15.25
2016-03-07T03:19:06.737Z,15.27
2016-03-07T03:20:06.754Z,15.31
2016-03-07T03:21:06.820Z,15.28
2016-03-07T03:22:06.854Z,15.27
2016-03-07T03:23:06.903Z,15.31
2016-03-07T03:24:07.000Z,15.29
2016-03-07T03:25:07.003Z,15.28
2016-03-07T03:26:07.068Z,15.24
2016-03-07T03:27:07.101Z,15.24
2016-03-07T03:28:07.151Z,15.29
2016-03-07T03:29:07.232Z,15.28
2016-03-07T03:30:07.250Z,15.27
2016-03-07T03:31:07.300Z,15.24
2016-03-07T03:32:07.349Z,15.28
2016-03-07T03:33:07.414Z,15.25
2016-03-07T03:34:07.448Z,15.22
2016-03-07T03:35:07.514Z,15.29
2016-03-07T03:36:07.548Z,15.27
2016-03-07T03:37:07.597Z,15.21
2016-03-07T03:38:07.647Z,15.31
2016-03-07T03:39:07.696Z,15.25
2016-03-07T03:40:07.746Z,15.24
2016-03-07T03:41:07.811Z,15.25
2016-03-07T03:42:07.845Z,15.24
2016-03-07T03:43:07.894Z,15.27
2016-03-07T03:44:07.975Z,15.28
2016-03-07T03:45:07.994Z,15.31
2016-03-07T03:46:08.059Z,15.21
2016-03-07T03:47:08.093Z,15.24
2016-03-07T03:48:08.142Z,15.28
2016-03-07T03:49:08.192Z,15.25
2016-03-07T03:50:08.241Z,15.25
2016-03-07T03:51:08.291Z,15.24
2016-03-07T03:52:08.340Z,15.27
2016-03-07T03:53:08.390Z,15.31
2016-03-07T03:54:08.439Z,15.28
2016-03-07T03:55:08.504Z,15.24
2016-03-07T03:56:08.539Z,15.27
2016-03-07T03:57:08.589Z,15.25
2016-03-07T03:58:08.637Z,15.27
2016-03-07T03:59:08.735Z,15.22
2016-03-07T04:00:08.753Z,15.27
2016-03-07T04:01:08.787Z,15.19
2016-03-07T04:02:08.836Z,15.28
2016-03-07T04:03:08.901Z,15.19
2016-03-07T04:04:08.935Z,15.27
2016-03-07T04:05:08.986Z,15.24
2016-03-07T04:06:09.050Z,15.18
2016-03-07T04:07:09.084Z,15.22
2016-03-07T04:08:09.149Z,15.22
2016-03-07T04:09:09.183Z,15.18
2016-03-07T04:10:09.233Z,15.18
2016-03-07T04:11:09.298Z,15.28
2016-03-07T04:12:09.332Z,15.25
2016-03-07T04:13:09.382Z,15.28
2016-03-07T04:14:09.478Z,15.22
2016-03-07T04:15:09.497Z,15.21
2016-03-07T04:16:09.546Z,15.21
2016-03-07T04:17:09.626Z,15.25
2016-03-07T04:18:09.629Z,15.17
2016-03-07T04:19:09.679Z,15.21
2016-03-07T04:20:09.760Z,15.22
2016-03-07T04:21:09.778Z,15.19
2016-03-07T04:22:09.827Z,15.22
2016-03-07T04:23:09.876Z,15.11
2016-03-07T04:24:09.926Z,15.27
2016-03-07T04:25:09.976Z,15.25
2016-03-07T04:26:10.026Z,15.27
2016-03-07T04:27:10.090Z,15.24
2016-03-07T04:28:10.141Z,15.29
2016-03-07T04:29:10.175Z,15.22
2016-03-07T04:30:10.240Z,15.19
2016-03-07T04:31:10.273Z,15.25
2016-03-07T04:32:10.339Z,15.22
2016-03-07T04:33:10.388Z,15.22
2016-03-07T04:34:10.439Z,15.17
2016-03-07T04:35:10.487Z,15.21
2016-03-07T04:36:10.540Z,15.22
2016-03-07T04:37:10.573Z,15.25
2016-03-07T04:38:10.640Z,15.22
2016-03-07T04:39:10.704Z,15.24
2016-03-07T04:40:10.723Z,15.17
2016-03-07T04:41:10.776Z,15.11
2016-03-07T04:42:10.841Z,15.19
2016-03-07T04:43:10.875Z,15.17
2016-03-07T04:44:10.957Z,15.21
2016-03-07T04:45:10.990Z,15.09
2016-03-07T04:46:11.024Z,15.15
2016-03-07T04:47:11.073Z,15.17
2016-03-07T04:48:11.154Z,15.14
2016-03-07T04:49:11.173Z,15.21
2016-03-07T04:50:11.270Z,15.1
2016-03-07T04:51:11.272Z,15.11
2016-03-07T04:52:11.322Z,15.17
2016-03-07T04:53:11.371Z,15.14
2016-03-07T04:54:11.420Z,15.11
2016-03-07T04:55:11.455Z,15.21
2016-03-07T04:56:11.503Z,15.11
2016-03-07T04:57:11.569Z,15.11
2016-03-07T04:58:11.603Z,15.15
2016-03-07T04:59:11.528Z,15.11
2016-03-07T05:00:11.702Z,15.1
2016-03-07T05:01:11.752Z,15.22
2016-03-07T05:02:11.817Z,15.18
2016-03-07T05:03:11.866Z,15.21
2016-03-07T05:04:11.900Z,15.17
2016-03-07T05:05:11.965Z,15.09
2016-03-07T05:06:11.991Z,15.19
2016-03-07T05:07:12.057Z,15.1
2016-03-07T05:08:12.107Z,15.17
2016-03-07T05:09:12.172Z,15.15
2016-03-07T05:10:12.221Z,15.11
2016-03-07T05:11:12.271Z,15.19
2016-03-07T05:12:12.305Z,15.21
2016-03-07T05:13:12.354Z,15.15
2016-03-07T05:14:12.420Z,15.1
2016-03-07T05:15:12.453Z,15.09
2016-03-07T05:16:12.503Z,15.19
2016-03-07T05:17:12.568Z,15.15
2016-03-07T05:18:12.587Z,15.11
2016-03-07T05:19:12.651Z,15.15
2016-03-07T05:20:12.717Z,15.11
2016-03-07T05:21:12.766Z,15.17
2016-03-07T05:22:12.800Z,15.14
2016-03-07T05:23:12.850Z,15.18
2016-03-07T05:24:12.900Z,15.09
2016-03-07T05:25:12.933Z,15.14
2016-03-07T05:26:13.014Z,15.22
2016-03-07T05:27:13.048Z,15.14
2016-03-07T05:28:13.098Z,15.15
2016-03-07T05:29:13.147Z,15.15
2016-03-07T05:30:13.197Z,15.1
2016-03-07T05:31:13.261Z,15.15
2016-03-07T05:32:13.297Z,15.14
2016-03-07T05:33:13.346Z,15.14
2016-03-07T05:34:13.380Z,15.14
2016-03-07T05:35:13.476Z,15.09
2016-03-07T05:36:13.494Z,15.18
2016-03-07T05:37:13.528Z,15.15
2016-03-07T05:38:13.594Z,15.15
2016-03-07T05:39:13.643Z,15.18
2016-03-07T05:40:13.693Z,15.15
2016-03-07T05:41:13.727Z,15.09
2016-03-07T05:42:13.791Z,15.18
2016-03-07T05:43:13.841Z,15.18
2016-03-07T05:44:13.890Z,15.14
2016-03-07T05:45:13.940Z,15.14
2016-03-07T05:46:13.990Z,15.17
2016-03-07T05:47:14.040Z,15.15
2016-03-07T05:48:14.089Z,15.18
2016-03-07T05:49:14.123Z,15.17
2016-03-07T05:50:14.187Z,15.11
2016-03-07T05:51:14.238Z,15.11
2016-03-07T05:52:14.287Z,15.17
2016-03-07T05:53:14.337Z,15.15
2016-03-07T05:54:14.386Z,15.1
2016-03-07T05:55:14.421Z,15.17
2016-03-07T05:56:14.486Z,15.11
2016-03-07T05:57:14.536Z,15.14
2016-03-07T05:58:14.569Z,15.18
2016-03-07T05:59:14.650Z,15.14
2016-03-07T06:00:14.684Z,15.19
2016-03-07T06:01:14.734Z,15.15
2016-03-07T06:02:14.767Z,15.14
2016-03-07T06:03:14.833Z,15.15
2016-03-07T06:04:14.882Z,15.11
2016-03-07T06:05:14.932Z,15.19
2016-03-07T06:06:14.966Z,15.11
2016-03-07T06:07:15.030Z,15.07
2016-03-07T06:08:15.065Z,15.15
2016-03-07T06:09:15.130Z,15.14
2016-03-07T06:10:15.180Z,15.17
2016-03-07T06:11:15.244Z,15.18
2016-03-07T06:12:15.279Z,15.09
2016-03-07T06:13:15.328Z,15.15
2016-03-07T06:14:15.377Z,15.18
2016-03-07T06:15:15.412Z,15.17
2016-03-07T06:16:15.493Z,15.09
2016-03-07T06:17:15.526Z,15.17
2016-03-07T06:18:15.560Z,15.15
2016-03-07T06:19:15.625Z,15.14
2016-03-07T06:20:15.691Z,15.18
2016-03-07T06:21:15.725Z,15.11
2016-03-07T06:22:15.774Z,15.07
2016-03-07T06:23:15.823Z,15.14
2016-03-07T06:24:15.874Z,15.07
2016-03-07T06:25:15.923Z,15.17
2016-03-07T06:26:15.973Z,15.18
2016-03-07T06:27:16.037Z,15.21
2016-03-07T06:28:16.056Z,15.15
2016-03-07T06:29:16.122Z,15.15
2016-03-07T06:30:16.156Z,15.11
2016-03-07T06:31:16.220Z,15.19
2016-03-07T06:32:16.270Z,15.1
2016-03-07T06:33:16.335Z,15.14
2016-03-07T06:34:16.369Z,15.17
2016-03-07T06:35:16.403Z,15.18
2016-03-07T06:36:16.468Z,15.18
2016-03-07T06:37:16.518Z,15.19
2016-03-07T06:38:16.567Z,15.17
2016-03-07T06:39:16.617Z,15.15
2016-03-07T06:40:16.666Z,15.14
2016-03-07T06:41:16.700Z,15.14
2016-03-07T06:42:16.765Z,15.07
2016-03-07T06:43:16.816Z,15.17
2016-03-07T06:44:16.865Z,15.17
2016-03-07T06:45:16.930Z,15.15
2016-03-07T06:46:16.948Z,15.14
2016-03-07T06:47:17.029Z,15.06
2016-03-07T06:48:17.047Z,15.1
2016-03-07T06:49:17.113Z,15.15
2016-03-07T06:50:17.146Z,15.15
2016-03-07T06:51:17.212Z,15.19
2016-03-07T06:52:17.262Z,15.18
2016-03-07T06:53:17.296Z,15.14
2016-03-07T06:54:17.345Z,15.06
2016-03-07T06:55:17.410Z,15.1
2016-03-07T06:56:17.444Z,15.14
2016-03-07T06:57:17.488Z,15.15
2016-03-07T06:58:17.539Z,15.11
2016-03-07T06:59:17.402Z,15.15
2016-03-07T07:00:17.577Z,15.14
2016-03-07T07:01:17.644Z,15.15
2016-03-07T07:02:17.682Z,15.18
2016-03-07T07:03:17.711Z,15.11
2016-03-07T07:04:17.770Z,15.14
2016-03-07T07:05:17.799Z,15.14
2016-03-07T07:06:17.842Z,15.1
2016-03-07T07:07:17.904Z,15.14
2016-03-07T07:08:17.936Z,15.15
2016-03-07T07:09:17.984Z,15.1
2016-03-07T07:10:18.032Z,15.15
2016-03-07T07:11:18.064Z,15.1
2016-03-07T07:12:18.128Z,15.17
2016-03-07T07:13:18.176Z,15.1
2016-03-07T07:14:18.241Z,15.14
2016-03-07T07:15:18.275Z,15.15
2016-03-07T07:16:18.324Z,15.17
2016-03-07T07:17:18.362Z,15.17
2016-03-07T07:18:18.427Z,15.06
2016-03-07T07:19:18.477Z,15.14
2016-03-07T07:20:18.542Z,15.17
2016-03-07T07:21:18.575Z,15.14
2016-03-07T07:22:18.624Z,15.1
2016-03-07T07:23:18.673Z,15.15
2016-03-07T07:24:18.708Z,15.17
2016-03-07T07:25:18.788Z,15.1
2016-03-07T07:26:18.823Z,15.07
2016-03-07T07:27:18.872Z,15.15
2016-03-07T07:28:18.937Z,15.1
2016-03-07T07:29:18.970Z,15.1
2016-03-07T07:30:19.020Z,15.18
2016-03-07T07:31:19.070Z,15.17
2016-03-07T07:32:19.151Z,15.15
2016-03-07T07:33:19.154Z,15.11
2016-03-07T07:34:19.219Z,15.15
2016-03-07T07:35:19.253Z,15.11
2016-03-07T07:36:19.303Z,15.15
2016-03-07T07:37:19.383Z,15.14
2016-03-07T07:38:19.402Z,15.17
2016-03-07T07:39:19.451Z,15.17
2016-03-07T07:40:19.516Z,15.15
2016-03-07T07:41:19.566Z,15.15
2016-03-07T07:42:19.615Z,15.14
2016-03-07T07:43:19.666Z,15.07
2016-03-07T07:44:19.730Z,15.18
2016-03-07T07:45:19.749Z,15.15
2016-03-07T07:46:19.813Z,15.18
2016-03-07T07:47:19.864Z,15.1
2016-03-07T07:48:19.897Z,15.17
2016-03-07T07:49:19.978Z,15.14
2016-03-07T07:50:20.027Z,15.09
2016-03-07T07:51:20.046Z,15.17
2016-03-07T07:52:20.110Z,15.14
2016-03-07T07:53:20.160Z,15.19
2016-03-07T07:54:20.209Z,15.17
2016-03-07T07:55:20.243Z,15.14
2016-03-07T07:56:20.293Z,15.17
2016-03-07T07:57:20.343Z,15.11
2016-03-07T07:58:20.424Z,15.18
2016-03-07T07:59:20.442Z,15.17
2016-03-07T08:00:20.507Z,15.15
2016-03-07T08:01:20.557Z,15.1
2016-03-07T08:02:20.592Z,15.15
2016-03-07T08:03:20.656Z,15.14
2016-03-07T08:04:20.722Z,15.14
2016-03-07T08:05:20.739Z,15.17
2016-03-07T08:06:20.805Z,15.17
2016-03-07T08:07:20.854Z,15.19
2016-03-07T08:08:20.888Z,15.18
2016-03-07T08:09:20.938Z,15.28
2016-03-07T08:10:21.003Z,15.27
2016-03-07T08:11:21.036Z,15.25
2016-03-07T08:12:21.072Z,15.21
2016-03-07T08:13:21.136Z,15.28
2016-03-07T08:14:21.186Z,15.24
2016-03-07T08:15:21.252Z,15.31
2016-03-07T08:16:21.316Z,15.27
2016-03-07T08:17:21.335Z,15.4
2016-03-07T08:18:21.368Z,15.4
2016-03-07T08:19:21.433Z,15.35
2016-03-07T08:20:21.483Z,15.39
2016-03-07T08:21:20.782Z,15.42
2016-03-07T08:22:21.582Z,15.4
2016-03-07T08:23:21.678Z,15.4
2016-03-07T08:24:21.681Z,15.27
2016-03-07T08:25:21.731Z,15.29
2016-03-07T08:26:21.781Z,15.29
2016-03-07T08:27:21.830Z,15.37
2016-03-07T08:28:21.896Z,15.36
2016-03-07T08:29:21.929Z,15.33
2016-03-07T08:30:21.979Z,15.33
2016-03-07T08:31:22.028Z,15.27
2016-03-07T08:32:22.093Z,15.27
2016-03-07T08:33:22.128Z,15.24
2016-03-07T08:34:22.177Z,15.35
2016-03-07T08:35:22.226Z,15.22
2016-03-07T08:36:22.276Z,15.25
2016-03-07T08:37:22.325Z,15.27
2016-03-07T08:38:22.406Z,15.27
2016-03-07T08:39:22.472Z,15.27
2016-03-07T08:40:22.474Z,15.22
2016-03-07T08:41:22.525Z,15.25
2016-03-07T08:42:22.605Z,15.24
2016-03-07T08:43:22.623Z,15.29
2016-03-07T08:44:22.719Z,15.33
2016-03-07T08:45:22.722Z,15.24
2016-03-07T08:46:22.616Z,15.19
2016-03-07T08:47:22.838Z,15.24
2016-03-07T08:48:22.886Z,15.29
2016-03-07T08:49:22.920Z,15.22
2016-03-07T08:50:23.002Z,15.27
2016-03-07T08:51:23.066Z,15.21
2016-03-07T08:52:23.069Z,15.22
2016-03-07T08:53:23.118Z,15.22
2016-03-07T08:54:23.168Z,15.24
2016-03-07T08:55:23.234Z,15.19
2016-03-07T08:56:23.267Z,15.21
2016-03-07T08:57:23.332Z,15.24
2016-03-07T08:58:23.367Z,15.27
2016-03-07T08:59:23.401Z,15.21
2016-03-07T09:00:23.450Z,15.22
2016-03-07T09:01:23.515Z,15.17
2016-03-07T09:02:23.564Z,15.15
2016-03-07T09:03:23.615Z,15.17
2016-03-07T09:04:23.664Z,15.11
2016-03-07T09:05:23.698Z,15.18
2016-03-07T09:06:23.779Z,15.15
2016-03-07T09:07:23.797Z,15.19
2016-03-07T09:08:23.847Z,15.11
2016-03-07T09:09:23.911Z,15.11
2016-03-07T09:10:23.961Z,15.09
2016-03-07T09:11:24.011Z,15.22
2016-03-07T09:12:24.061Z,15.25
2016-03-07T09:13:24.125Z,15.27
2016-03-07T09:14:24.160Z,15.27
2016-03-07T09:15:24.209Z,15.22
2016-03-07T09:16:24.258Z,15.29
2016-03-07T09:17:24.308Z,15.29
2016-03-07T09:18:24.358Z,15.22
2016-03-07T09:19:24.392Z,15.31
2016-03-07T09:20:24.457Z,15.25
2016-03-07T09:21:24.507Z,15.25
2016-03-07T09:22:24.572Z,15.24
2016-03-07T09:23:24.606Z,15.24
2016-03-07T09:24:24.670Z,15.25
2016-03-07T09:25:24.704Z,15.28
2016-03-07T09:26:24.754Z,15.25
2016-03-07T09:27:24.788Z,15.27
2016-03-07T09:28:24.853Z,15.31
2016-03-07T09:29:24.918Z,15.29
2016-03-07T09:30:24.953Z,15.29
2016-03-07T09:31:25.002Z,15.22
2016-03-07T09:32:25.051Z,15.24
2016-03-07T09:33:25.086Z,15.28
2016-03-07T09:34:25.167Z,15.27
2016-03-07T09:35:25.185Z,15.28
2016-03-07T09:36:25.250Z,15.28
2016-03-07T09:37:25.283Z,15.25
2016-03-07T09:38:25.395Z,15.28
2016-03-07T09:39:25.383Z,15.24
2016-03-07T09:40:25.433Z,15.27
2016-03-07T09:41:25.483Z,15.27
2016-03-07T09:42:25.548Z,15.27
2016-03-07T09:43:25.597Z,15.24
2016-03-07T09:44:25.647Z,15.25
2016-03-07T09:45:25.697Z,15.22
2016-03-07T09:46:25.730Z,15.22
2016-03-07T09:47:25.780Z,15.28
2016-03-07T09:48:25.829Z,15.25
2016-03-07T09:49:25.894Z,15.28
2016-03-07T09:50:25.927Z,15.28
2016-03-07T09:51:25.993Z,15.27
2016-03-07T09:52:26.027Z,15.33
2016-03-07T09:53:26.140Z,15.27
2016-03-07T09:54:26.127Z,15.25
2016-03-07T09:55:26.176Z,15.27
2016-03-07T09:56:26.241Z,15.25
2016-03-07T09:57:26.276Z,15.25
2016-03-07T09:58:26.325Z,15.29
2016-03-07T09:59:26.374Z,15.28
2016-03-07T10:00:26.424Z,15.29
2016-03-07T10:01:26.474Z,15.27
2016-03-07T10:02:26.523Z,15.31
2016-03-07T10:03:26.587Z,15.29
2016-03-07T10:04:26.637Z,15.33
2016-03-07T10:05:26.672Z,15.27
2016-03-07T10:06:26.722Z,15.28
2016-03-07T10:07:26.771Z,15.31
2016-03-07T10:08:26.837Z,15.28
2016-03-07T10:09:26.871Z,15.31
2016-03-07T10:10:26.936Z,15.33
2016-03-07T10:11:26.970Z,15.35
2016-03-07T10:12:27.067Z,15.27
2016-03-07T10:13:27.069Z,15.27
2016-03-07T10:14:27.118Z,15.27
2016-03-07T10:15:27.168Z,15.28
2016-03-07T10:16:27.249Z,15.24
2016-03-07T10:17:27.268Z,15.24
2016-03-07T10:18:27.318Z,15.24
2016-03-07T10:19:27.368Z,15.28
2016-03-07T10:20:27.418Z,15.24
2016-03-07T10:21:27.467Z,15.24
2016-03-07T10:22:27.516Z,15.31
2016-03-07T10:23:27.565Z,15.28
2016-03-07T10:24:27.632Z,15.29
2016-03-07T10:25:27.665Z,15.28
2016-03-07T10:26:27.699Z,15.27
2016-03-07T10:27:27.764Z,15.27
2016-03-07T10:28:27.814Z,15.24
2016-03-07T10:29:27.879Z,15.29
2016-03-07T10:30:27.898Z,15.27
2016-03-07T10:31:27.962Z,15.19
2016-03-07T10:32:28.028Z,15.27
2016-03-07T10:33:28.078Z,15.25
2016-03-07T10:34:28.111Z,15.28
2016-03-07T10:35:28.161Z,15.27
2016-03-07T10:36:28.210Z,15.22
2016-03-07T10:37:28.260Z,15.25
2016-03-07T10:38:28.325Z,15.21
2016-03-07T10:39:28.344Z,15.24
2016-03-07T10:40:28.408Z,15.18
2016-03-07T10:41:28.474Z,15.27
2016-03-07T10:42:28.524Z,15.11
2016-03-07T10:43:28.557Z,15.11
2016-03-07T10:44:28.591Z,15.18
2016-03-07T10:45:28.672Z,15.14
2016-03-07T10:46:28.706Z,15.22
2016-03-07T10:47:28.755Z,15.21
2016-03-07T10:48:28.821Z,15.15
2016-03-07T10:49:28.871Z,15.11
2016-03-07T10:50:28.888Z,15.22
2016-03-07T10:51:28.954Z,15.17
2016-03-07T10:52:28.988Z,15.11
2016-03-07T10:53:29.053Z,15.17
2016-03-07T10:54:29.102Z,15.14
2016-03-07T10:55:29.151Z,15.19
2016-03-07T10:56:29.202Z,15.22
2016-03-07T10:57:29.282Z,15.18
2016-03-07T10:58:29.301Z,15.11
2016-03-07T10:59:29.350Z,15.17
2016-03-07T11:00:29.753Z,15.1
2016-03-07T11:01:29.473Z,15.11
2016-03-07T11:02:29.543Z,15.14
2016-03-07T11:03:29.775Z,15.11
2016-03-07T11:04:29.605Z,15.19
2016-03-07T11:05:29.671Z,15.14
2016-03-07T11:06:29.673Z,15.17
2016-03-07T11:07:29.785Z,15.19
2016-03-07T11:08:29.616Z,15.22
2016-03-07T11:09:29.838Z,15.22
2016-03-07T11:10:29.903Z,15.21
2016-03-07T11:11:29.937Z,15.27
2016-03-07T11:12:29.986Z,15.22
2016-03-07T11:13:30.036Z,15.27
2016-03-07T11:14:30.101Z,15.25
2016-03-07T11:15:30.181Z,15.25
2016-03-07T11:16:30.184Z,15.25
2016-03-07T11:17:30.249Z,15.27
2016-03-07T11:18:29.534Z,15.31
2016-03-07T11:19:30.348Z,15.33
2016-03-07T11:20:30.398Z,15.29
2016-03-07T11:21:30.432Z,15.31
2016-03-07T11:22:30.481Z,15.27
2016-03-07T11:23:30.532Z,15.24
2016-03-07T11:24:30.565Z,15.25
2016-03-07T11:25:30.645Z,15.25
2016-03-07T11:26:30.664Z,15.18
2016-03-07T11:27:30.730Z,15.21
2016-03-07T11:28:30.794Z,15.18
2016-03-07T11:29:30.828Z,15.06
2016-03-07T11:30:30.863Z,15.09
2016-03-07T11:31:30.928Z,14.96
2016-03-07T11:32:30.977Z,15
2016-03-07T11:33:31.027Z,14.97
2016-03-07T11:34:31.092Z,14.92
2016-03-07T11:35:31.126Z,14.89
2016-03-07T11:36:31.191Z,14.84
2016-03-07T11:37:31.257Z,14.77
2016-03-07T11:38:31.260Z,14.73
2016-03-07T11:39:31.324Z,14.77
2016-03-07T11:40:31.373Z,14.73
2016-03-07T11:41:31.424Z,14.65
2016-03-07T11:42:31.473Z,14.66
2016-03-07T11:43:31.523Z,14.6
2016-03-07T11:44:31.415Z,14.65
2016-03-07T11:45:31.622Z,14.62
2016-03-07T11:46:31.671Z,14.63
2016-03-07T11:47:31.736Z,14.54
2016-03-07T11:48:31.771Z,14.5
2016-03-07T11:49:31.820Z,14.5
2016-03-07T11:50:31.931Z,14.58
2016-03-07T11:51:31.920Z,14.47
2016-03-07T11:52:31.969Z,14.48
2016-03-07T11:53:32.018Z,14.51
2016-03-07T11:54:32.067Z,14.45
2016-03-07T11:55:32.101Z,14.58
2016-03-07T11:56:32.151Z,14.54
2016-03-07T11:57:32.200Z,14.5
2016-03-07T11:58:32.250Z,14.54
2016-03-07T11:59:32.316Z,14.48
2016-03-07T12:00:32.365Z,14.45
2016-03-07T12:01:32.415Z,14.51
2016-03-07T12:02:32.449Z,14.6
2016-03-07T12:03:32.514Z,14.66
2016-03-07T12:04:32.547Z,14.63
2016-03-07T12:05:32.597Z,14.69
2016-03-07T12:06:32.652Z,14.65
2016-03-07T12:07:32.713Z,14.66
2016-03-07T12:08:32.683Z,14.65
2016-03-07T12:09:32.810Z,14.77
2016-03-07T12:10:32.846Z,14.72
2016-03-07T12:11:32.910Z,14.7
2016-03-07T12:12:32.943Z,14.85
2016-03-07T12:13:33.009Z,14.88
2016-03-07T12:14:33.059Z,14.85
2016-03-07T12:15:33.108Z,14.86
2016-03-07T12:16:33.142Z,14.96
2016-03-07T12:17:33.193Z,14.82
2016-03-07T12:18:33.257Z,14.94
2016-03-07T12:19:33.290Z,14.94
2016-03-07T12:20:33.340Z,14.92
2016-03-07T12:21:33.218Z,14.96
2016-03-07T12:22:33.424Z,14.97
2016-03-07T12:23:33.520Z,14.94
2016-03-07T12:24:33.539Z,14.99
2016-03-07T12:25:33.573Z,14.96
2016-03-07T12:26:33.622Z,15.03
2016-03-07T12:27:32.937Z,14.97
2016-03-07T12:28:33.722Z,14.97
2016-03-07T12:29:33.834Z,15.04
2016-03-07T12:30:33.696Z,14.99
2016-03-07T12:31:33.870Z,14.96
2016-03-07T12:32:33.920Z,15.02
2016-03-07T12:33:33.985Z,14.97
2016-03-07T12:34:34.019Z,14.96
2016-03-07T12:35:34.069Z,15.04
2016-03-07T12:36:34.118Z,15.07
2016-03-07T12:37:34.168Z,15
2016-03-07T12:38:34.217Z,15.06
2016-03-07T12:39:34.266Z,15.11
2016-03-07T12:40:34.332Z,15.04
2016-03-07T12:41:34.366Z,15.06
2016-03-07T12:42:34.416Z,15.11
2016-03-07T12:43:34.465Z,15.02
2016-03-07T12:44:34.515Z,15.07
2016-03-07T12:45:34.580Z,15.09
2016-03-07T12:46:34.613Z,15.09
2016-03-07T12:47:34.663Z,15.17
2016-03-07T12:48:34.712Z,15.07
2016-03-07T12:49:34.794Z,15.11
2016-03-07T12:50:34.843Z,15.15
2016-03-07T12:51:34.845Z,15.15
2016-03-07T12:52:34.912Z,15.17
2016-03-07T12:53:34.961Z,15.18
2016-03-07T12:54:35.009Z,15.17
2016-03-07T12:55:35.060Z,15.21